createdAt,value
2019-04-04T00:01:35.254Z,6.93
2019-04-04T00:04:10.726Z,7.10
2019-04-04T00:06:48.888Z,6.83
2019-04-04T00:09:20.126Z,6.70
2019-04-04T00:11:53.255Z,6.80
2019-04-04T00:14:45.459Z,6.93
2019-04-04T00:17:23.323Z,7.30
2019-04-04T00:19:58.999Z,7.10
2019-04-04T00:22:35.171Z,7.13
2019-04-04T00:25:09.649Z,7.03
2019-04-04T00:27:43.964Z,6.90
2019-04-04T00:30:17.945Z,6.70
2019-04-04T00:32:58.010Z,7.23
2019-04-04T00:35:37.074Z,6.53
2019-04-04T00:38:07.966Z,7.00
2019-04-04T00:40:40.107Z,6.60
2019-04-04T00:43:13.610Z,6.80
2019-04-04T00:45:44.115Z,6.80
2019-04-04T00:48:15.281Z,7.07
2019-04-04T00:50:46.179Z,6.77
2019-04-04T00:53:17.394Z,6.70
2019-04-04T00:55:48.704Z,6.90
2019-04-04T00:58:21.382Z,6.63
2019-04-04T01:00:54.867Z,6.87
2019-04-04T01:03:29.737Z,6.90
2019-04-04T01:06:02.921Z,6.97
2019-04-04T01:08:37.992Z,7.30
2019-04-04T01:11:10.633Z,7.13
2019-04-04T01:13:44.625Z,7.20
2019-04-04T01:16:15.798Z,7.30
2019-04-04T01:18:50.566Z,6.90
2019-04-04T01:21:25.433Z,7.00
2019-04-04T01:23:58.272Z,6.90
2019-04-04T01:26:34.838Z,7.13
2019-04-04T01:29:06.038Z,7.40
2019-04-04T01:31:46.986Z,7.00
2019-04-04T01:34:20.510Z,7.10
2019-04-04T01:36:50.167Z,7.17
2019-04-04T01:39:29.038Z,7.47
2019-04-04T01:42:00.116Z,7.00
2019-04-04T01:44:30.510Z,6.93
2019-04-04T01:47:01.149Z,7.30
2019-04-04T01:49:35.885Z,7.40
2019-04-04T01:52:12.030Z,7.20
2019-04-04T01:54:51.118Z,6.97
2019-04-04T01:57:23.587Z,7.20
2019-04-04T01:59:58.338Z,6.80
2019-04-04T02:02:34.421Z,7.00
2019-04-04T02:05:07.899Z,7.47
2019-04-04T02:07:44.422Z,6.77
2019-04-04T02:10:16.497Z,7.30
2019-04-04T02:13:02.953Z,7.00
2019-04-04T02:15:36.103Z,6.87
2019-04-04T02:18:08.363Z,6.80
2019-04-04T02:20:40.726Z,7.40
2019-04-04T02:23:13.150Z,7.03
2019-04-04T02:25:45.171Z,7.43
2019-04-04T02:28:20.806Z,6.83
2019-04-04T02:30:55.124Z,7.00
2019-04-04T02:33:25.923Z,7.77
2019-04-04T02:36:00.161Z,7.27
2019-04-04T02:38:31.907Z,7.10
2019-04-04T02:41:07.762Z,6.93
2019-04-04T02:43:40.884Z,6.80
2019-04-04T02:46:12.424Z,7.20
2019-04-04T02:48:45.468Z,6.83
2019-04-04T02:51:15.659Z,6.87
2019-04-04T02:53:53.749Z,7.10
2019-04-04T02:56:36.027Z,7.40
2019-04-04T02:59:08.967Z,7.20
2019-04-04T03:01:41.352Z,6.97
2019-04-04T03:04:15.965Z,7.10
2019-04-04T03:07:01.436Z,7.10
2019-04-04T03:09:41.924Z,7.13
2019-04-04T03:12:10.236Z,7.07
2019-04-04T03:14:44.449Z,7.00
2019-04-04T03:17:21.193Z,7.20
2019-04-04T03:20:00.807Z,6.97
2019-04-04T03:23:02.180Z,6.87
2019-04-04T03:25:48.654Z,7.03
2019-04-04T03:28:22.702Z,7.00
2019-04-04T03:31:02.822Z,6.90
2019-04-04T03:33:39.522Z,7.10
2019-04-04T03:36:18.632Z,6.87
2019-04-04T03:39:04.588Z,6.93
2019-04-04T03:41:37.909Z,6.90
2019-04-04T03:44:09.657Z,7.07
2019-04-04T03:46:41.430Z,6.50
2019-04-04T03:49:13.145Z,7.30
2019-04-04T03:51:55.712Z,7.77
2019-04-04T03:54:29.043Z,7.13
2019-04-04T03:57:13.673Z,7.27
2019-04-04T03:59:49.437Z,6.77
2019-04-04T04:02:33.098Z,7.37
2019-04-04T04:05:03.875Z,7.47
2019-04-04T04:07:38.770Z,6.70
2019-04-04T04:10:15.535Z,7.23
2019-04-04T04:12:56.719Z,6.80
2019-04-04T04:15:30.544Z,7.00
2019-04-04T04:18:01.469Z,6.80
2019-04-04T04:20:36.377Z,7.00
2019-04-04T04:23:04.522Z,7.10
2019-04-04T04:25:45.605Z,6.70
2019-04-04T04:28:19.783Z,7.10
2019-04-04T04:30:48.220Z,6.87
2019-04-04T04:33:19.114Z,6.83
2019-04-04T04:35:49.401Z,6.87
2019-04-04T04:38:25.515Z,7.00
2019-04-04T04:40:52.595Z,6.80
2019-04-04T04:43:33.738Z,7.07
2019-04-04T04:46:08.967Z,7.33
2019-04-04T04:48:43.453Z,7.10
2019-04-04T04:51:16.286Z,7.00
2019-04-04T04:53:50.345Z,7.03
2019-04-04T04:56:20.252Z,7.03
2019-04-04T04:58:56.584Z,6.57
2019-04-04T05:01:34.990Z,7.00
2019-04-04T05:04:08.159Z,7.23
2019-04-04T05:06:41.421Z,7.20
2019-04-04T05:09:16.000Z,7.03
2019-04-04T05:11:48.113Z,6.90
2019-04-04T05:14:22.338Z,7.20
2019-04-04T05:17:03.735Z,7.23
2019-04-04T05:19:41.873Z,6.80
2019-04-04T05:22:16.280Z,6.53
2019-04-04T05:24:50.529Z,6.70
2019-04-04T05:27:26.566Z,6.83
2019-04-04T05:29:59.084Z,6.90
2019-04-04T05:32:29.420Z,7.00
2019-04-04T05:35:02.086Z,7.37
2019-04-04T05:37:32.040Z,6.60
2019-04-04T05:40:02.702Z,6.83
2019-04-04T05:42:33.678Z,6.80
2019-04-04T05:45:09.001Z,6.90
2019-04-04T05:47:43.342Z,6.83
2019-04-04T05:50:16.221Z,7.23
2019-04-04T05:52:45.903Z,6.90
2019-04-04T05:55:22.297Z,6.63
2019-04-04T05:57:52.314Z,6.80
2019-04-04T06:00:26.952Z,6.80
2019-04-04T06:03:06.959Z,6.97
2019-04-04T06:05:39.767Z,7.03
2019-04-04T06:08:13.778Z,6.80
2019-04-04T06:10:45.475Z,6.57
2019-04-04T06:13:22.158Z,7.03
2019-04-04T06:16:00.022Z,6.80
2019-04-04T06:18:32.798Z,6.87
2019-04-04T06:21:04.850Z,6.87
2019-04-04T06:23:37.443Z,7.20
2019-04-04T06:26:08.315Z,7.03
2019-04-04T06:28:38.906Z,7.20
2019-04-04T06:31:09.336Z,6.70
2019-04-04T06:33:39.913Z,6.77
2019-04-04T06:36:10.111Z,6.80
2019-04-04T06:38:40.370Z,6.97
2019-04-04T06:41:10.810Z,6.77
2019-04-04T06:43:42.024Z,6.63
2019-04-04T06:46:12.549Z,6.93
2019-04-04T06:48:45.690Z,6.53
2019-04-04T06:51:16.969Z,6.60
2019-04-04T06:53:48.119Z,6.67
2019-04-04T06:56:19.500Z,7.00
2019-04-04T06:58:51.863Z,7.00
2019-04-04T07:01:27.678Z,7.07
2019-04-04T07:03:59.546Z,6.57
2019-04-04T07:06:31.275Z,6.90
2019-04-04T07:09:02.428Z,6.63
2019-04-04T07:11:35.116Z,7.00
2019-04-04T07:14:14.299Z,6.60
2019-04-04T07:16:50.211Z,6.73
2019-04-04T07:19:22.719Z,6.50
2019-04-04T07:21:54.136Z,6.70
2019-04-04T07:24:25.390Z,6.70
2019-04-04T07:26:56.421Z,6.37
2019-04-04T07:29:33.259Z,6.67
2019-04-04T07:32:07.183Z,7.10
2019-04-04T07:34:45.102Z,6.80
2019-04-04T07:37:16.748Z,6.87
2019-04-04T07:39:51.256Z,6.70
2019-04-04T07:42:22.155Z,7.13
2019-04-04T07:44:54.536Z,6.67
2019-04-04T07:47:25.282Z,7.27
2019-04-04T07:49:56.777Z,6.93
2019-04-04T07:52:27.582Z,6.57
2019-04-04T07:54:58.404Z,6.50
2019-04-04T07:57:30.259Z,6.90
2019-04-04T08:00:01.647Z,6.53
2019-04-04T08:02:33.101Z,6.97
2019-04-04T08:05:08.589Z,6.87
2019-04-04T08:07:39.985Z,6.80
2019-04-04T08:10:20.318Z,6.40
2019-04-04T08:12:44.959Z,7.20
2019-04-04T08:15:17.002Z,7.20
2019-04-04T08:17:50.970Z,7.20
2019-04-04T08:20:22.138Z,6.53
2019-04-04T08:22:55.099Z,6.93
2019-04-04T08:25:25.403Z,6.57
2019-04-04T08:27:56.349Z,6.60
2019-04-04T08:30:26.882Z,6.00
2019-04-04T08:32:58.206Z,6.80
2019-04-04T08:35:28.893Z,6.43
2019-04-04T08:37:59.849Z,6.30
2019-04-04T08:40:30.167Z,6.43
2019-04-04T08:43:01.395Z,6.60
2019-04-04T08:45:33.082Z,6.50
2019-04-04T08:48:07.072Z,6.40
2019-04-04T08:50:41.556Z,6.27
2019-04-04T08:53:12.921Z,6.50
2019-04-04T08:55:44.219Z,6.30
2019-04-04T08:58:14.790Z,6.47
2019-04-04T09:00:45.946Z,6.10
2019-04-04T09:03:17.011Z,6.40
2019-04-04T09:05:47.310Z,6.50
2019-04-04T09:08:18.716Z,6.20
2019-04-04T09:10:49.427Z,6.50
2019-04-04T09:13:20.361Z,6.60
2019-04-04T09:15:53.485Z,6.40
2019-04-04T09:18:29.703Z,6.10
2019-04-04T09:21:03.325Z,6.10
2019-04-04T09:23:34.341Z,6.07
2019-04-04T09:26:06.022Z,6.67
2019-04-04T09:28:37.558Z,6.30
2019-04-04T09:31:07.874Z,6.70
2019-04-04T09:33:38.617Z,6.90
2019-04-04T09:36:08.932Z,7.40
2019-04-04T09:38:39.988Z,7.77
2019-04-04T09:41:10.290Z,7.60
2019-04-04T09:43:41.342Z,8.57
2019-04-04T09:46:13.625Z,9.13
2019-04-04T09:48:50.107Z,8.60
2019-04-04T09:51:20.596Z,8.63
2019-04-04T09:53:53.207Z,8.07
2019-04-04T09:56:24.422Z,8.43
2019-04-04T09:58:55.528Z,8.50
2019-04-04T10:01:26.926Z,8.50
2019-04-04T10:03:58.414Z,7.97
2019-04-04T10:06:32.009Z,8.27
2019-04-04T10:09:15.062Z,8.20
2019-04-04T10:11:36.751Z,8.23
2019-04-04T10:14:08.504Z,7.90
2019-04-04T10:16:39.684Z,8.13
2019-04-04T10:19:10.795Z,7.53
2019-04-04T10:21:41.608Z,7.93
2019-04-04T10:24:12.684Z,8.30
2019-04-04T10:26:45.910Z,8.00
2019-04-04T10:29:16.878Z,7.93
2019-04-04T10:31:51.094Z,8.00
2019-04-04T10:34:28.625Z,7.87
2019-04-04T10:37:00.256Z,8.17
2019-04-04T10:39:32.884Z,8.10
2019-04-04T10:42:03.962Z,8.10
2019-04-04T10:44:38.386Z,7.70
2019-04-04T10:47:09.465Z,7.47
2019-04-04T10:49:40.678Z,7.70
2019-04-04T10:52:11.810Z,8.47
2019-04-04T10:54:45.462Z,7.73
2019-04-04T10:57:17.897Z,7.40
2019-04-04T10:59:49.238Z,7.60
2019-04-04T11:02:22.779Z,8.20
2019-04-04T11:04:53.950Z,7.90
2019-04-04T11:07:24.521Z,7.90
2019-04-04T11:09:55.656Z,7.87
2019-04-04T11:12:29.257Z,8.00
2019-04-04T11:15:00.188Z,9.03
2019-04-04T11:17:31.269Z,9.23
2019-04-04T11:20:02.256Z,9.03
2019-04-04T11:22:36.773Z,8.70
2019-04-04T11:25:09.007Z,9.07
2019-04-04T11:27:40.860Z,9.33
2019-04-04T11:30:12.005Z,8.87
2019-04-04T11:32:43.896Z,9.30
2019-04-04T11:35:14.592Z,9.20
2019-04-04T11:38:15.973Z,9.87
2019-04-04T11:40:51.819Z,9.00
2019-04-04T11:43:22.607Z,9.23
2019-04-04T11:45:53.077Z,10.30
2019-04-04T11:48:23.394Z,10.53
2019-04-04T11:50:54.045Z,10.40
2019-04-04T11:53:24.293Z,10.60
2019-04-04T11:55:57.723Z,10.73
2019-04-04T11:58:28.575Z,11.13
2019-04-04T12:01:01.173Z,10.60
2019-04-04T12:03:31.842Z,10.37
2019-04-04T12:06:04.991Z,10.50
2019-04-04T12:08:35.373Z,10.20
2019-04-04T12:11:06.361Z,10.30
2019-04-04T12:13:37.285Z,10.10
2019-04-04T12:16:08.981Z,10.33
2019-04-04T12:18:39.418Z,9.80
2019-04-04T12:21:09.874Z,10.07
2019-04-04T12:23:40.622Z,10.47
2019-04-04T12:26:12.964Z,9.30
2019-04-04T12:28:43.518Z,10.37
2019-04-04T12:31:14.042Z,10.20
2019-04-04T12:33:49.582Z,10.13
2019-04-04T12:36:24.956Z,9.53
2019-04-04T12:38:52.436Z,9.50
2019-04-04T12:41:23.158Z,9.13
2019-04-04T12:43:54.793Z,9.47
2019-04-04T12:46:27.133Z,9.20
2019-04-04T12:48:57.455Z,9.13
2019-04-04T12:51:30.039Z,9.13
2019-04-04T12:54:03.887Z,9.20
2019-04-04T12:56:34.962Z,8.50
2019-04-04T12:59:05.887Z,8.70
2019-04-04T13:01:36.063Z,8.57
2019-04-04T13:04:06.975Z,8.73
2019-04-04T13:06:37.236Z,8.73
2019-04-04T13:09:09.806Z,8.60
2019-04-04T13:11:40.486Z,8.60
2019-04-04T13:14:11.484Z,8.20
2019-04-04T13:16:42.781Z,8.30
2019-04-04T13:19:13.830Z,8.20
2019-04-04T13:21:47.767Z,8.30
2019-04-04T13:24:18.555Z,8.43
2019-04-04T13:26:50.131Z,7.97
2019-04-04T13:29:21.141Z,8.03
2019-04-04T13:31:51.670Z,8.30
2019-04-04T13:34:22.422Z,7.83
2019-04-04T13:36:52.834Z,7.87
2019-04-04T13:39:24.175Z,8.30
2019-04-04T13:41:54.544Z,8.33
2019-04-04T13:44:25.572Z,8.23
2019-04-04T13:46:55.859Z,8.23
2019-04-04T13:49:26.897Z,8.13
2019-04-04T13:51:57.235Z,8.17
2019-04-04T13:54:28.262Z,7.90
2019-04-04T13:56:59.101Z,7.90
2019-04-04T13:59:33.026Z,7.80
2019-04-04T14:02:04.461Z,7.63
2019-04-04T14:04:35.601Z,7.43
2019-04-04T14:07:06.763Z,7.70
2019-04-04T14:09:37.890Z,7.90
2019-04-04T14:12:09.033Z,7.53
2019-04-04T14:14:40.227Z,7.60
2019-04-04T14:17:11.370Z,8.07
2019-04-04T14:19:43.705Z,7.53
2019-04-04T14:22:14.348Z,7.80
2019-04-04T14:24:45.570Z,7.97
2019-04-04T14:27:16.437Z,7.83
2019-04-04T14:29:46.933Z,7.70
2019-04-04T14:32:20.987Z,7.90
2019-04-04T14:34:50.888Z,9.13
2019-04-04T14:37:31.896Z,11.30
2019-04-04T14:40:03.186Z,11.37
2019-04-04T14:42:34.623Z,10.70
2019-04-04T14:45:06.660Z,11.57
2019-04-04T14:47:37.438Z,11.30
2019-04-04T14:50:08.723Z,11.67
2019-04-04T14:52:39.525Z,11.90
2019-04-04T14:55:11.272Z,12.00
2019-04-04T14:57:42.057Z,11.07
2019-04-04T15:00:15.892Z,11.50
2019-04-04T15:02:46.566Z,10.77
2019-04-04T15:05:18.514Z,9.73
2019-04-04T15:07:48.917Z,10.53
2019-04-04T15:10:19.883Z,10.23
2019-04-04T15:12:50.218Z,10.17
2019-04-04T15:15:20.938Z,9.73
2019-04-04T15:17:51.621Z,9.97
2019-04-04T15:20:22.622Z,9.97
2019-04-04T15:22:52.816Z,9.80
2019-04-04T15:25:23.970Z,10.10
2019-04-04T15:27:54.380Z,9.93
2019-04-04T15:30:25.355Z,9.70
2019-04-04T15:32:55.686Z,9.13
2019-04-04T15:35:26.702Z,9.03
2019-04-04T15:37:57.117Z,9.03
2019-04-04T15:40:28.127Z,8.97
2019-04-04T15:42:58.781Z,9.43
2019-04-04T15:45:29.439Z,8.63
2019-04-04T15:47:59.765Z,9.40
2019-04-04T15:50:30.803Z,9.27
2019-04-04T15:53:01.048Z,8.80
2019-04-04T15:55:32.174Z,9.13
2019-04-04T15:58:05.461Z,8.83
2019-04-04T16:00:36.827Z,9.03
2019-04-04T16:03:10.063Z,8.97
2019-04-04T16:05:43.194Z,8.90
2019-04-04T16:08:13.359Z,8.77
2019-04-04T16:10:51.181Z,9.57
2019-04-04T16:13:21.620Z,9.97
2019-04-04T16:15:56.080Z,9.90
2019-04-04T16:18:26.250Z,9.80
2019-04-04T16:20:57.156Z,10.87
2019-04-04T16:23:28.630Z,10.70
2019-04-04T16:26:05.568Z,10.40
2019-04-04T16:28:35.865Z,11.47
2019-04-04T16:31:06.923Z,11.23
2019-04-04T16:33:37.207Z,11.63
2019-04-04T16:36:10.747Z,11.37
2019-04-04T16:38:44.202Z,10.70
2019-04-04T16:41:15.018Z,11.17
2019-04-04T16:43:49.651Z,11.07
2019-04-04T16:46:22.835Z,11.23
2019-04-04T16:48:53.726Z,11.13
2019-04-04T16:51:24.834Z,11.47
2019-04-04T16:53:56.770Z,11.10
2019-04-04T16:56:27.873Z,10.50
2019-04-04T16:58:59.361Z,11.10
2019-04-04T17:01:30.214Z,10.73
2019-04-04T17:04:01.874Z,10.50
2019-04-04T17:06:34.318Z,10.70
2019-04-04T17:09:07.076Z,10.53
2019-04-04T17:11:39.381Z,10.47
2019-04-04T17:14:10.083Z,10.63
2019-04-04T17:16:48.699Z,10.90
2019-04-04T17:19:19.125Z,10.60
2019-04-04T17:21:52.390Z,10.50
2019-04-04T17:24:23.363Z,10.27
2019-04-04T17:26:57.395Z,10.43
2019-04-04T17:29:30.287Z,9.80
2019-04-04T17:32:02.044Z,10.83
2019-04-04T17:34:34.119Z,10.40
2019-04-04T17:37:04.835Z,10.27
2019-04-04T17:39:36.505Z,9.87
2019-04-04T17:42:06.923Z,9.83
2019-04-04T17:44:40.915Z,10.30
2019-04-04T17:47:12.595Z,9.90
2019-04-04T17:49:44.302Z,10.00
2019-04-04T17:52:16.030Z,10.00
2019-04-04T17:54:49.323Z,9.63
2019-04-04T17:57:22.334Z,9.87
2019-04-04T17:59:58.020Z,10.13
2019-04-04T18:02:30.041Z,9.90
2019-04-04T18:05:01.010Z,9.60
2019-04-04T18:07:32.933Z,9.97
2019-04-04T18:10:05.862Z,9.17
2019-04-04T18:12:40.465Z,9.23
2019-04-04T18:15:13.265Z,9.50
2019-04-04T18:17:53.102Z,9.30
2019-04-04T18:20:25.998Z,10.13
2019-04-04T18:22:59.309Z,9.50
2019-04-04T18:25:34.657Z,9.47
2019-04-04T18:28:09.422Z,9.37
2019-04-04T18:30:51.130Z,9.97
2019-04-04T18:33:24.202Z,9.70
2019-04-04T18:36:03.709Z,10.13
2019-04-04T18:38:38.971Z,10.07
2019-04-04T18:41:11.058Z,9.80
2019-04-04T18:43:49.751Z,10.00
2019-04-04T18:46:19.699Z,9.43
2019-04-04T18:49:00.281Z,9.93
2019-04-04T18:51:37.614Z,10.10
2019-04-04T18:54:19.291Z,9.47
2019-04-04T18:56:53.067Z,10.10
2019-04-04T18:59:25.873Z,9.83
2019-04-04T19:01:58.919Z,9.87
2019-04-04T19:04:33.377Z,10.00
2019-04-04T19:07:08.756Z,9.63
2019-04-04T19:09:43.346Z,10.00
2019-04-04T19:12:15.411Z,9.37
2019-04-04T19:14:45.719Z,9.70
2019-04-04T19:17:21.691Z,9.50
2019-04-04T19:19:53.623Z,9.60
2019-04-04T19:22:35.103Z,9.63
2019-04-04T19:25:06.518Z,9.67
2019-04-04T19:27:37.461Z,9.80
2019-04-04T19:30:12.540Z,9.47
2019-04-04T19:32:45.822Z,9.60
2019-04-04T19:35:20.565Z,9.80
2019-04-04T19:37:59.880Z,9.97
2019-04-04T19:40:26.304Z,9.23
2019-04-04T19:42:57.778Z,9.37
2019-04-04T19:45:29.227Z,9.40
2019-04-04T19:47:59.640Z,9.47
2019-04-04T19:50:31.086Z,9.27
2019-04-04T19:53:01.736Z,9.43
2019-04-04T19:55:33.713Z,9.30
2019-04-04T19:58:04.249Z,9.50
2019-04-04T20:00:40.682Z,9.23
2019-04-04T20:03:11.840Z,9.30
2019-04-04T20:05:45.670Z,9.13
2019-04-04T20:08:16.265Z,9.50
2019-04-04T20:10:52.724Z,9.00
2019-04-04T20:13:31.159Z,9.30
2019-04-04T20:16:02.077Z,9.07
2019-04-04T20:18:36.602Z,9.50
2019-04-04T20:21:10.114Z,9.03
2019-04-04T20:23:40.699Z,9.30
2019-04-04T20:26:11.823Z,9.20
2019-04-04T20:28:45.002Z,9.20
2019-04-04T20:31:15.919Z,9.50
2019-04-04T20:34:01.398Z,8.87
2019-04-04T20:36:38.503Z,9.27
2019-04-04T20:39:14.863Z,8.97
2019-04-04T20:41:46.613Z,8.60
2019-04-04T20:44:19.041Z,8.73
2019-04-04T20:46:50.894Z,8.93
2019-04-04T20:49:21.728Z,8.43
2019-04-04T20:51:54.226Z,8.67
2019-04-04T20:54:31.012Z,8.97
2019-04-04T20:57:01.754Z,9.03
2019-04-04T20:59:32.450Z,8.87
2019-04-04T21:02:07.481Z,8.87
2019-04-04T21:04:43.353Z,8.67
2019-04-04T21:07:14.627Z,9.10
2019-04-04T21:09:50.230Z,8.50
2019-04-04T21:12:22.155Z,8.97
2019-04-04T21:14:52.518Z,8.57
2019-04-04T21:17:24.129Z,8.70
2019-04-04T21:19:54.726Z,8.63
2019-04-04T21:22:28.030Z,8.50
2019-04-04T21:24:59.134Z,8.80
2019-04-04T21:27:30.669Z,8.30
2019-04-04T21:30:05.135Z,8.57
2019-04-04T21:32:44.364Z,8.13
2019-04-04T21:35:15.028Z,8.40
2019-04-04T21:37:49.591Z,8.37
2019-04-04T21:40:20.126Z,8.37
2019-04-04T21:42:57.897Z,8.20
2019-04-04T21:45:34.663Z,8.43
2019-04-04T21:48:08.014Z,8.47
2019-04-04T21:50:38.567Z,7.97
2019-04-04T21:53:18.252Z,8.40
2019-04-04T21:55:51.571Z,8.53
2019-04-04T21:58:29.963Z,8.00
2019-04-04T22:01:01.805Z,8.03
2019-04-04T22:03:53.336Z,7.60
2019-04-04T22:06:28.900Z,8.47
2019-04-04T22:09:01.151Z,8.00
2019-04-04T22:11:45.674Z,8.30
2019-04-04T22:14:21.810Z,8.47
2019-04-04T22:16:56.038Z,8.20
2019-04-04T22:19:30.611Z,8.13
2019-04-04T22:22:02.606Z,8.20
2019-04-04T22:24:38.261Z,8.00
2019-04-04T22:27:16.021Z,8.10
2019-04-04T22:29:45.922Z,8.50
2019-04-04T22:32:16.948Z,8.70
2019-04-04T22:34:47.262Z,8.50
2019-04-04T22:37:22.314Z,8.00
2019-04-04T22:39:58.514Z,7.93
2019-04-04T22:42:37.293Z,8.13
2019-04-04T22:45:07.885Z,8.30
2019-04-04T22:47:42.642Z,8.57
2019-04-04T22:50:16.691Z,8.30
2019-04-04T22:52:53.879Z,8.03
2019-04-04T22:55:27.693Z,8.43
2019-04-04T22:58:05.294Z,8.50
2019-04-04T23:00:35.638Z,8.70
2019-04-04T23:03:11.750Z,8.47
2019-04-04T23:05:45.335Z,8.50
2019-04-04T23:08:22.302Z,8.20
2019-04-04T23:10:55.388Z,8.47
2019-04-04T23:13:33.930Z,8.43
2019-04-04T23:16:04.815Z,7.80
2019-04-04T23:18:44.546Z,8.47
2019-04-04T23:21:16.350Z,8.30
2019-04-04T23:23:50.225Z,8.10
2019-04-04T23:26:22.322Z,8.27
2019-04-04T23:28:55.750Z,8.07
2019-04-04T23:31:34.442Z,8.17
2019-04-04T23:34:13.782Z,8.40
2019-04-04T23:36:44.098Z,8.37
2019-04-04T23:39:19.175Z,8.07
2019-04-04T23:41:52.618Z,8.03
2019-04-04T23:44:25.434Z,8.30
2019-04-04T23:47:03.266Z,8.30
2019-04-04T23:49:38.422Z,8.30
2019-04-04T23:52:16.841Z,8.27
2019-04-04T23:54:52.133Z,8.27
2019-04-04T23:57:27.179Z,7.80
